createdAt,value
2022-09-27T00:14:46.157Z,1001.85
2022-09-27T00:43:45.847Z,1001.62
2022-09-27T01:12:47.675Z,1002.03
2022-09-27T01:41:49.469Z,1002.62
2022-09-27T02:10:45.815Z,1002.79
2022-09-27T02:39:38.995Z,1002.79
2022-09-27T03:08:29.061Z,1002.99
2022-09-27T03:37:28.358Z,1003.27
2022-09-27T04:06:22.109Z,1003.36
2022-09-27T04:35:10.938Z,1003.66
2022-09-27T05:03:56.221Z,1004.1
2022-09-27T05:32:51.209Z,1004.52
2022-09-27T06:01:49.059Z,1004.64
2022-09-27T06:30:31.324Z,1004.87
2022-09-27T06:59:22.361Z,1005.05
2022-09-27T07:28:04.925Z,1005.23
2022-09-27T07:57:05.974Z,1005.57
2022-09-27T08:26:08.803Z,1005.72
2022-09-27T08:54:57.596Z,1005.87
2022-09-27T09:24:00.500Z,1005.57
2022-09-27T09:52:25.154Z,1005.28
2022-09-27T10:20:36.756Z,1005.3
2022-09-27T10:48:49.480Z,1005.18
2022-09-27T11:17:10.876Z,1005.2
2022-09-27T11:46:24.591Z,1004.93
2022-09-27T12:13:54.381Z,1004.91
2022-09-27T12:42:18.956Z,1004.8
2022-09-27T13:11:02.597Z,1004.86
2022-09-27T13:39:09.521Z,1005.13
2022-09-27T14:07:27.705Z,1005.09
2022-09-27T14:35:50.998Z,1004.95
2022-09-27T15:04:13.513Z,1005.1
2022-09-27T15:33:06.577Z,1005.42
2022-09-27T16:01:53.614Z,1005.48
2022-09-27T16:30:37.880Z,1005.71
2022-09-27T16:59:19.047Z,1005.6
2022-09-27T17:28:09.066Z,1005.7
2022-09-27T17:57:10.898Z,1005.56
2022-09-27T18:26:01.745Z,1005.53
2022-09-27T18:54:15.703Z,1005.63
2022-09-27T19:22:25.777Z,1005.44
2022-09-27T19:50:39.153Z,1005.26
2022-09-27T20:19:04.275Z,1005.09
2022-09-27T20:47:23.765Z,1004.93
2022-09-27T21:15:48.348Z,1004.55
2022-09-27T21:44:11.231Z,1004.2
2022-09-27T22:12:23.762Z,1003.89
2022-09-27T22:40:39.552Z,1003.48
2022-09-27T23:08:58.448Z,1002.77
2022-09-27T23:37:40.931Z,1002.09
